Gorman-Rupp Co (GRC) Latest Bloomsberg Price


Mffais Ranking #1805 Overall / #5 Industry
Industry: Flow Control Equipment

Number of Companies: 56 (Ranking #2293 Overall/#17 Industry)
Inflow: $ 2,608 (K) (Ranking #2483 Overall/#17 Industry)
Outflow: $ -6,356 (K)
Mffais Flow: $ -3,747 (K) (Ranking #1805 Overall/#5 Industry)


Receive a FREE weekly executive review of stocks moving into the top 10, taking the top industy spot or moving up within their industry. Sent directly to your Inbox every Saturday. Sign up today and get last week's review immediately sent to you.

We value and respect your privacy. Please read our Terms and Conditions which states our firm commitment to your privacy. Your email address will not be shared with a third party, nor will it be sold or used for purposes other than subscription for the weekly review.

Owner CPOR Shares Action Qty Chg Invested (K) Total Current Value (K)
Westwood Holdings Group Inc 2016-03-31 215,056 Added More 35,463 $ 919 $ 5,576
Spark Investment Management Llc 2016-03-31 16,100 New Holding 16,100 $ 417 $ 417
Janney Montgomery Scott Llc 2016-06-30 23,598 Added More 11,916 $ 326 $ 646
Regions Financial Corp 2016-06-30 10,957 New Holding 10,957 $ 300 $ 300
Lbmc Investment Advisors Llc 2016-06-30 71,116 Added More 10,000 $ 274 $ 1,949
Northern Trust Corp 2016-03-31 229,064 Added More 3,472 $ 90 $ 5,939
Gam Holding Ag 2016-03-31 2,712 New Holding 2,712 $ 70 $ 70
Rhumbline Advisers 2016-03-31 29,358 Added More 2,320 $ 60 $ 761
Benjamin F Edwards Company Inc 2016-06-30 55,432 Added More 1,000 $ 27 $ 1,519
Schwab Charles Investment Management Inc 2016-03-31 60,531 Added More 1,020 $ 26 $ 1,569
Blackrock Inc 2016-06-30 9,029 Added More 927 $ 25 $ 247
Legal General Group Plc 2016-03-31 3,661 Added More 870 $ 22 $ 94
Bnp Paribas Arbitrage Sa 2016-06-30 682 New Holding 682 $ 18 $ 18
Metropolitan Life Insurance Co Ny 2016-03-31 15,409 Added More 494 $ 12 $ 399
Acrospire Investment Management Llc 2016-06-30 448 New Holding 448 $ 12 $ 12
Tower Research Capital Llc Trc 2016-06-30 258 Added More 120 $ 3 $ 7
Hsbc Holdings Plc 2016-03-31 9,312 Added More 56 $ 1 $ 241
Manchester Capital Management Llc 2016-06-30 22,574 No Change 0 $ 0 $ 618
Capwealth Advisors Llc 2016-06-30 2,662 No Change 0 $ 0 $ 72
Royce Associates Lp 2016-06-30 736,416 No Change 0 $ 0 $ 20,185
Horizon Kinetics Llc 2016-03-31 8,672 No Change 0 $ 0 $ 224
First Manhattan Co 2016-06-30 1,522 No Change 0 $ 0 $ 41
Re Advisers Corp 2016-06-30 947,087 No Change 0 $ 0 $ 25,959
Mondrian Investment Partners Ltd 2016-06-30 84,234 No Change 0 $ 0 $ 2,308
American International Group Inc 2016-03-31 11,191 No Change 0 $ 0 $ 290
United Capital Financial Advisers Llc 2016-03-31 9,375 No Change 0 $ 0 $ 243
Finemark National Bank Trust 2016-06-30 3,050 No Change 0 $ 0 $ 83
Ifp Advisors Inc 2016-03-31 96 No Change 0 $ 0 $ 2
California Public Employees Retirement System 2016-06-30 57,468 No Change 0 $ 0 $ 1,575
New York State Common Retirement Fund 2016-06-30 19,100 No Change 0 $ 0 $ 523
Teachers Advisors Inc 2016-03-31 31,078 No Change 0 $ 0 $ 805
M T Bank Corp 2016-06-30 107,000 No Change 0 $ 0 $ 2,932
D A Davidson Co 2016-03-31 410 No Change 0 $ 0 $ 10
Teton Advisors Inc 2016-06-30 123,000 No Change 0 $ 0 $ 3,371
Pnc Financial Services Group Inc 2016-06-30 8,925 Sold Some -5 $ -0 $ 244
Prentiss Smith Co Inc 2016-06-30 6,184 Sold Some -42 $ -1 $ 169
Teacher Retirement System Of Texas 2016-06-30 2,751 Sold Some -198 $ -5 $ 75
Keybank National Association Oh 2016-06-30 326,372 Sold Some -291 $ -7 $ 8,945
Nationwide Fund Advisors 2016-06-30 11,875 Sold Some -440 $ -12 $ 325
Guggenheim Capital Llc 2016-03-31 43,216 Sold Some -541 $ -14 $ 1,120
Fruth Investment Management 2016-06-30 76,856 Sold Some -512 $ -14 $ 2,106
Nisa Investment Advisors L L C 2016-06-30 5,775 Sold Some -600 $ -16 $ 158
Cutler Group Lp 2016-06-30 0 Sold All -1,000 $ -27 $ 0
Blackrock Investment Management Llc 2016-06-30 69,640 Sold Some -1,868 $ -51 $ 1,908
Gabelli Funds Llc 2016-06-30 953,000 Sold Some -2,000 $ -54 $ 26,121
California State Teachers Retirement System 2016-06-30 36,951 Sold Some -3,393 $ -93 $ 1,012
Park National Corp Oh 2016-06-30 101,364 Sold Some -3,529 $ -96 $ 2,778
Gamco Investors Inc Et Al 2016-06-30 658,209 Sold Some -4,375 $ -119 $ 18,041
Swiss National Bank 2016-06-30 31,447 Sold Some -4,800 $ -131 $ 861
Us Bancorp De 2016-06-30 140,490 Sold Some -5,002 $ -137 $ 3,850
Morgan Dempsey Capital Management Llc 2016-06-30 435,567 Sold Some -5,925 $ -162 $ 11,938
First Trust Advisors Lp 2016-06-30 112,939 Sold Some -7,272 $ -199 $ 3,095
Grace White Inc Ny 2016-06-30 381,842 Sold Some -10,000 $ -274 $ 10,466
Tfs Capital Llc 2016-03-31 0 Sold All -11,530 $ -298 $ 0
Champlain Investment Partners Llc 2016-03-31 536,215 Sold Some -63,950 $ -1,658 $ 13,904
Ladenburg Thalmann Financial Services Inc 2016-03-31 4,834 Sold Some -114,934 $ -2,980 $ 125